Terminal Aerodrome Forecast
Issued by NWS

Home | Current Version | Previous Version | Text Only | Print | Product List | Glossary On
Versions: 1 2 3 4 5 6 7 8 9 10 11 12 13 14 15
000
FTUS42 KMLB 281120
TAFFPR
TAF
KFPR 281120Z 2812/2912 00000KT P6SM FEW020
     FM281500 03007KT P6SM VCSH SCT040
     FM281700 07010KT P6SM SCT040
     FM290200 01005KT P6SM FEW040 SCT250
     FM290800 VRB02KT P6SM FEW250=

USA.gov is the U.S. government's official web portal to all federal, state and local government web resources and services.